Time;durP1;ratioP1;P1;durP2;ratioP2;P2;SDS_P1;SDS_P2;PMS_P1;PMS_P2;Temp;Humidity;BMP_temperature;BMP_pressure;BME280_temperature;BME280_humidity;BME280_pressure;Samples;Min_cycle;Max_cycle;Signal;HPM_P1;HPM_P2
2023/09/25 00:00:43;;;;;;;3.83;1.75;;;12.00;99.90;;;;;;5038833;28;20017;-69
2023/09/25 00:03:09;;;;;;;2.28;1.48;;;12.00;99.90;;;;;;5038520;28;20079;-69
2023/09/25 00:05:35;;;;;;;2.75;1.45;;;12.00;99.90;;;;;;5038496;28;20108;-69
2023/09/25 00:08:00;;;;;;;8.27;2.00;;;12.00;99.90;;;;;;5039270;28;20025;-69
2023/09/25 00:10:26;;;;;;;6.45;2.13;;;12.00;99.90;;;;;;5038362;28;20038;-69
2023/09/25 00:12:51;;;;;;;2.53;1.65;;;11.90;99.90;;;;;;5038167;28;20028;-69
2023/09/25 00:15:17;;;;;;;3.10;1.55;;;11.90;99.90;;;;;;5039338;28;20025;-69
2023/09/25 00:17:43;;;;;;;4.10;1.85;;;11.90;99.90;;;;;;5038264;28;20037;-70
2023/09/25 00:20:14;;;;;;;2.95;2.08;;;11.90;99.90;;;;;;5038503;28;20026;-69
2023/09/25 00:22:40;;;;;;;2.88;2.00;;;11.90;99.90;;;;;;5039088;28;20104;-69
2023/09/25 00:25:07;;;;;;;8.43;2.00;;;12.00;99.90;;;;;;5039069;28;20021;-69
2023/09/25 00:27:33;;;;;;;5.90;1.83;;;11.90;99.90;;;;;;5038037;28;20026;-69
2023/09/25 00:30:00;;;;;;;3.20;1.75;;;11.80;99.90;;;;;;5039241;28;20059;-69
2023/09/25 00:32:27;;;;;;;4.00;1.65;;;11.80;99.90;;;;;;5038133;28;20097;-69
2023/09/25 00:34:53;;;;;;;2.10;1.40;;;11.70;99.90;;;;;;5038579;28;20025;-69
2023/09/25 00:37:19;;;;;;;2.22;1.50;;;11.70;99.90;;;;;;5038725;28;20030;-69
2023/09/25 00:39:44;;;;;;;2.90;1.67;;;11.60;99.90;;;;;;5038375;28;20029;-69
2023/09/25 00:42:10;;;;;;;4.97;1.10;;;11.60;99.90;;;;;;5039042;28;20026;-69
2023/09/25 00:44:36;;;;;;;1.25;0.98;;;11.60;99.90;;;;;;5037761;28;20017;-69
2023/09/25 00:47:03;;;;;;;1.05;0.95;;;11.40;99.90;;;;;;5038561;28;20029;-69
2023/09/25 00:49:30;;;;;;;1.40;0.85;;;11.40;99.90;;;;;;5037622;28;20021;-69
2023/09/25 00:51:57;;;;;;;0.95;0.85;;;11.30;99.90;;;;;;5038588;28;20036;-69
2023/09/25 00:54:23;;;;;;;1.08;0.80;;;11.20;99.90;;;;;;5038539;28;20026;-69
2023/09/25 00:56:50;;;;;;;2.42;1.15;;;11.20;99.90;;;;;;5038422;28;20064;-69
2023/09/25 00:59:16;;;;;;;2.40;1.02;;;11.20;99.90;;;;;;5037688;28;20083;-69
2023/09/25 01:01:42;;;;;;;1.30;1.10;;;11.20;99.90;;;;;;5038300;28;20022;-69
2023/09/25 01:04:08;;;;;;;5.65;1.10;;;11.20;99.90;;;;;;5038492;28;20024;-69
2023/09/25 01:06:34;;;;;;;2.20;0.98;;;11.20;99.90;;;;;;5038377;28;20025;-69
2023/09/25 01:09:00;;;;;;;1.42;0.80;;;11.20;99.90;;;;;;5038145;28;20029;-69
2023/09/25 01:11:25;;;;;;;2.13;1.00;;;11.20;99.90;;;;;;5037113;28;20034;-69
2023/09/25 01:13:51;;;;;;;3.17;1.05;;;11.20;99.90;;;;;;5038441;28;20026;-69
2023/09/25 01:16:17;;;;;;;3.75;1.58;;;11.00;99.90;;;;;;5037094;28;20022;-69
2023/09/25 01:18:42;;;;;;;2.25;1.00;;;11.10;99.90;;;;;;5037202;28;20025;-69
2023/09/25 01:21:08;;;;;;;1.58;1.30;;;11.10;99.90;;;;;;5037937;28;20045;-69
2023/09/25 01:23:33;;;;;;;3.28;1.55;;;11.20;99.90;;;;;;5037349;28;20025;-69
2023/09/25 01:25:59;;;;;;;1.48;1.38;;;11.20;99.90;;;;;;5037783;28;20079;-69
2023/09/25 01:28:25;;;;;;;2.17;1.77;;;11.00;99.90;;;;;;5038288;28;20049;-69
2023/09/25 01:30:50;;;;;;;2.55;1.40;;;11.10;99.90;;;;;;5036903;28;20036;-69
2023/09/25 01:33:17;;;;;;;3.78;1.10;;;11.10;99.90;;;;;;5037659;28;20040;-69
2023/09/25 01:35:42;;;;;;;3.38;1.30;;;11.10;99.90;;;;;;5036953;28;20025;-69
2023/09/25 01:38:08;;;;;;;1.75;1.10;;;11.10;99.90;;;;;;5037232;28;20032;-69
2023/09/25 01:40:34;;;;;;;2.80;1.40;;;11.00;99.90;;;;;;5037086;28;20025;-69
2023/09/25 01:42:59;;;;;;;3.97;1.30;;;10.90;99.90;;;;;;5037512;28;20060;-69
2023/09/25 01:45:25;;;;;;;1.95;1.13;;;10.90;99.90;;;;;;5037606;28;20086;-69
2023/09/25 01:47:53;;;;;;;2.03;1.40;;;10.70;99.90;;;;;;5036506;28;20061;-69
2023/09/25 01:50:20;;;;;;;2.10;1.10;;;10.70;99.90;;;;;;5037671;28;20028;-69
2023/09/25 01:52:50;;;;;;;4.13;1.30;;;10.50;99.90;;;;;;5037651;28;20052;-69
2023/09/25 01:55:16;;;;;;;1.63;0.95;;;10.50;99.90;;;;;;5037682;28;20036;-69
2023/09/25 01:57:42;;;;;;;2.33;1.10;;;10.40;99.90;;;;;;5036443;28;20026;-69
2023/09/25 02:00:09;;;;;;;6.43;1.20;;;10.50;99.90;;;;;;5037166;28;20092;-69
2023/09/25 02:02:36;;;;;;;1.67;1.15;;;10.60;99.90;;;;;;5037550;28;20017;-69
2023/09/25 02:05:02;;;;;;;1.70;1.50;;;10.60;99.90;;;;;;5037213;28;20032;-69
2023/09/25 02:07:27;;;;;;;1.80;1.10;;;10.70;99.90;;;;;;5037238;28;20029;-69
2023/09/25 02:09:53;;;;;;;1.65;1.13;;;10.60;99.90;;;;;;5036338;28;20034;-77
2023/09/25 02:12:18;;;;;;;2.10;0.90;;;10.60;99.90;;;;;;5036342;28;20033;-76
2023/09/25 02:14:44;;;;;;;2.28;1.40;;;10.50;99.90;;;;;;5036275;28;20033;-76
2023/09/25 02:17:09;;;;;;;2.30;1.02;;;10.60;99.90;;;;;;5037002;28;20045;-76
2023/09/25 02:19:36;;;;;;;2.42;1.45;;;10.50;99.90;;;;;;5036420;28;20041;-76
2023/09/25 02:22:06;;;;;;;3.70;2.03;;;10.40;99.90;;;;;;5037489;28;20013;-76
2023/09/25 02:24:35;;;;;;;3.15;1.30;;;10.50;99.90;;;;;;5036064;28;20017;-77
2023/09/25 02:27:00;;;;;;;1.95;1.30;;;10.50;99.90;;;;;;5036894;28;20029;-76
2023/09/25 02:29:26;;;;;;;1.35;1.08;;;10.50;99.90;;;;;;5036739;28;20096;-76
2023/09/25 02:31:51;;;;;;;1.38;1.00;;;10.50;99.90;;;;;;5036063;28;20071;-76
2023/09/25 02:34:17;;;;;;;4.13;1.50;;;10.50;99.90;;;;;;5036042;28;20032;-77
2023/09/25 02:36:43;;;;;;;3.38;1.60;;;10.50;99.90;;;;;;5038252;28;20093;-76
2023/09/25 02:39:10;;;;;;;2.55;1.42;;;10.50;99.90;;;;;;5040629;28;20036;-76
2023/09/25 02:41:36;;;;;;;1.92;1.42;;;10.50;99.90;;;;;;5041397;28;20025;-76
2023/09/25 02:44:01;;;;;;;2.63;1.17;;;10.40;99.90;;;;;;5040920;28;20025;-76
2023/09/25 02:46:27;;;;;;;1.05;0.80;;;10.30;99.90;;;;;;5041001;28;20040;-76
2023/09/25 02:48:52;;;;;;;2.80;1.08;;;10.20;99.90;;;;;;5039911;28;20032;-76
2023/09/25 02:51:18;;;;;;;1.30;1.05;;;10.10;99.90;;;;;;5040637;28;20086;-76
2023/09/25 02:53:43;;;;;;;2.30;0.90;;;10.30;99.90;;;;;;5039870;28;20026;-76
2023/09/25 02:56:09;;;;;;;1.88;0.95;;;10.40;99.90;;;;;;5039806;28;20033;-76
2023/09/25 02:58:34;;;;;;;1.30;1.10;;;10.10;99.90;;;;;;5039820;28;20051;-76
2023/09/25 03:01:00;;;;;;;2.80;1.33;;;10.10;99.90;;;;;;5039962;28;20018;-76
2023/09/25 03:03:28;;;;;;;1.63;1.20;;;10.00;99.90;;;;;;5039712;28;20021;-76
2023/09/25 03:05:54;;;;;;;1.92;1.23;;;10.00;99.90;;;;;;5039829;28;20027;-76
2023/09/25 03:08:19;;;;;;;1.20;0.90;;;10.00;99.90;;;;;;5039838;28;20033;-76
2023/09/25 03:10:45;;;;;;;1.10;0.93;;;10.00;99.90;;;;;;5039469;28;20029;-76
2023/09/25 03:13:11;;;;;;;1.25;1.10;;;9.80;99.90;;;;;;5040450;28;20025;-76
2023/09/25 03:15:36;;;;;;;3.08;0.98;;;9.70;99.90;;;;;;5039576;28;20030;-76
2023/09/25 03:18:02;;;;;;;1.92;1.42;;;9.70;99.90;;;;;;5040717;28;20022;-76
2023/09/25 03:20:28;;;;;;;2.75;1.60;;;9.80;99.90;;;;;;5039349;28;20025;-76
2023/09/25 03:22:54;;;;;;;2.58;1.35;;;9.90;99.90;;;;;;5040389;28;20026;-75
2023/09/25 03:25:20;;;;;;;2.15;1.00;;;9.90;99.90;;;;;;5040281;28;20101;-76
2023/09/25 03:27:46;;;;;;;1.63;1.10;;;9.80;99.90;;;;;;5039292;28;20055;-76
2023/09/25 03:30:13;;;;;;;1.30;1.00;;;9.80;99.90;;;;;;5040124;28;20085;-76
2023/09/25 03:32:38;;;;;;;1.27;1.17;;;9.70;99.90;;;;;;5040035;28;20032;-76
2023/09/25 03:35:04;;;;;;;1.15;0.93;;;9.90;99.90;;;;;;5039415;28;20029;-76
2023/09/25 03:37:30;;;;;;;2.00;1.35;;;9.60;99.90;;;;;;5039494;28;20022;-76
2023/09/25 03:39:56;;;;;;;2.25;1.15;;;9.60;99.90;;;;;;5039819;28;20032;-76
2023/09/25 03:42:21;;;;;;;1.70;1.00;;;9.50;99.90;;;;;;5038948;28;20089;-76
2023/09/25 03:44:47;;;;;;;3.35;1.08;;;9.70;99.90;;;;;;5039977;28;20025;-76
2023/09/25 03:47:13;;;;;;;2.53;0.82;;;9.60;99.90;;;;;;5039660;28;20060;-77
2023/09/25 03:49:39;;;;;;;2.15;1.00;;;9.70;99.90;;;;;;5039825;28;20036;-76
2023/09/25 03:52:05;;;;;;;2.25;1.02;;;9.70;99.90;;;;;;5038827;28;20034;-76
2023/09/25 03:54:30;;;;;;;3.47;0.70;;;9.60;99.90;;;;;;5039626;28;20029;-76
2023/09/25 03:56:56;;;;;;;0.60;0.52;;;9.50;99.90;;;;;;5039801;28;20021;-76
2023/09/25 03:59:21;;;;;;;0.68;0.63;;;9.40;99.90;;;;;;5038867;28;20116;-76
2023/09/25 04:01:47;;;;;;;1.27;0.70;;;9.40;99.90;;;;;;5038874;28;20025;-76
2023/09/25 04:04:13;;;;;;;2.28;0.70;;;9.40;99.90;;;;;;5038554;28;20052;-76
2023/09/25 04:06:39;;;;;;;0.85;0.70;;;9.40;99.90;;;;;;5038585;28;20061;-76
2023/09/25 04:09:07;;;;;;;0.52;0.52;;;9.40;99.90;;;;;;5038887;28;20101;-76
2023/09/25 04:11:33;;;;;;;0.77;0.50;;;9.40;99.90;;;;;;5038427;28;20120;-77
2023/09/25 04:14:00;;;;;;;1.65;0.85;;;9.30;99.90;;;;;;5038658;28;20080;-76
2023/09/25 04:16:28;;;;;;;1.65;0.98;;;9.10;99.90;;;;;;5038523;28;20097;-76
2023/09/25 04:18:57;;;;;;;4.78;1.15;;;9.10;99.90;;;;;;5038587;28;20091;-76
2023/09/25 04:21:22;;;;;;;2.03;0.80;;;9.20;99.90;;;;;;5038605;28;20024;-76
2023/09/25 04:23:48;;;;;;;0.65;0.60;;;9.20;99.90;;;;;;5038455;28;20022;-76
2023/09/25 04:26:14;;;;;;;1.13;0.90;;;9.20;99.90;;;;;;5038210;28;20068;-77
2023/09/25 04:28:40;;;;;;;1.25;0.93;;;9.20;99.90;;;;;;5038659;28;20029;-76
2023/09/25 04:31:06;;;;;;;3.72;0.70;;;9.00;99.90;;;;;;5038285;28;20025;-76
2023/09/25 04:33:33;;;;;;;4.95;0.98;;;9.00;99.90;;;;;;5038297;28;20036;-76
2023/09/25 04:35:59;;;;;;;0.98;0.60;;;8.90;99.90;;;;;;5038051;28;20026;-76
2023/09/25 04:38:26;;;;;;;1.25;0.80;;;9.00;99.90;;;;;;5038701;28;20025;-76
2023/09/25 04:40:51;;;;;;;1.02;0.93;;;9.10;99.90;;;;;;5037869;28;20026;-76
2023/09/25 04:43:20;;;;;;;4.25;1.10;;;9.20;99.90;;;;;;5038624;28;20120;-76
2023/09/25 04:45:46;;;;;;;1.35;0.85;;;9.20;99.90;;;;;;5038156;28;20014;-76
2023/09/25 04:48:13;;;;;;;3.40;1.30;;;9.20;99.90;;;;;;5038240;28;20087;-76
2023/09/25 04:50:40;;;;;;;2.28;1.00;;;9.20;99.90;;;;;;5037987;28;20025;-76
2023/09/25 04:53:08;;;;;;;5.88;1.40;;;9.20;99.90;;;;;;5038026;28;20021;-75
2023/09/25 04:55:34;;;;;;;2.17;1.25;;;9.20;99.90;;;;;;5037954;28;20026;-76
2023/09/25 04:57:59;;;;;;;2.08;1.38;;;9.30;99.90;;;;;;5037609;28;20084;-76
2023/09/25 05:00:26;;;;;;;2.08;1.70;;;9.30;99.90;;;;;;5037210;28;20061;-77
2023/09/25 05:02:54;;;;;;;3.00;1.13;;;9.40;99.90;;;;;;5037426;28;20045;-76
2023/09/25 05:05:20;;;;;;;1.73;1.25;;;9.40;99.90;;;;;;5038027;28;20031;-77
2023/09/25 05:07:50;;;;;;;3.42;1.00;;;9.30;99.90;;;;;;5037436;28;20079;-76
2023/09/25 05:10:18;;;;;;;1.10;0.70;;;9.30;99.90;;;;;;5038237;28;20116;-76
2023/09/25 05:12:44;;;;;;;1.50;0.93;;;9.30;99.90;;;;;;5037327;28;20052;-76
2023/09/25 05:15:11;;;;;;;2.17;1.00;;;9.30;99.90;;;;;;5037503;28;20025;-76
2023/09/25 05:17:38;;;;;;;1.38;0.80;;;9.30;99.90;;;;;;5041304;28;20026;-77
2023/09/25 05:20:10;;;;;;;1.60;1.25;;;9.30;99.90;;;;;;5038550;28;20025;-76
2023/09/25 05:22:37;;;;;;;2.70;1.00;;;9.30;99.90;;;;;;5038244;28;20021;-76
2023/09/25 05:25:03;;;;;;;1.92;1.23;;;9.20;99.90;;;;;;5038705;28;20022;-76
2023/09/25 05:27:29;;;;;;;1.58;1.02;;;9.20;99.90;;;;;;5037902;28;20029;-76
2023/09/25 05:29:57;;;;;;;2.63;1.40;;;9.10;99.90;;;;;;5037531;28;20029;-76
2023/09/25 05:32:23;;;;;;;2.33;1.52;;;9.10;99.90;;;;;;5037619;28;20026;-76
2023/09/25 05:34:48;;;;;;;2.58;1.70;;;9.00;99.90;;;;;;5039000;28;20032;-76
2023/09/25 05:37:14;;;;;;;2.67;2.13;;;9.10;99.90;;;;;;5039621;28;20026;-76
2023/09/25 05:39:40;;;;;;;3.08;1.50;;;8.90;99.90;;;;;;5038445;28;20022;-76
2023/09/25 05:42:06;;;;;;;2.03;1.65;;;9.00;99.90;;;;;;5037419;28;20017;-76
2023/09/25 05:44:31;;;;;;;2.45;1.90;;;9.10;99.90;;;;;;5037477;28;20108;-76
2023/09/25 05:46:57;;;;;;;2.55;1.92;;;9.10;99.90;;;;;;5037704;28;20056;-76
2023/09/25 05:49:23;;;;;;;2.40;1.58;;;9.10;99.90;;;;;;5037021;28;20025;-76
2023/09/25 05:51:53;;;;;;;1.50;1.35;;;9.20;99.90;;;;;;5036912;28;20033;-76
2023/09/25 05:54:21;;;;;;;4.85;1.95;;;9.20;99.90;;;;;;5037744;28;20017;-75
2023/09/25 05:56:48;;;;;;;2.67;2.05;;;9.30;99.90;;;;;;5037186;28;20036;-76
2023/09/25 05:59:14;;;;;;;2.35;1.80;;;9.40;99.90;;;;;;5036711;28;20087;-76
2023/09/25 06:01:39;;;;;;;2.90;1.90;;;9.40;99.90;;;;;;5038127;28;20018;-76
2023/09/25 06:04:05;;;;;;;5.13;2.08;;;9.40;99.90;;;;;;5037856;28;20044;-76
2023/09/25 06:06:33;;;;;;;2.35;1.75;;;9.50;99.90;;;;;;5038696;28;20072;-76
2023/09/25 06:08:59;;;;;;;1.73;1.40;;;9.50;99.90;;;;;;5038125;28;20091;-76
2023/09/25 06:11:24;;;;;;;3.13;1.83;;;9.60;99.90;;;;;;5036250;28;20029;-76
2023/09/25 06:13:50;;;;;;;2.03;1.35;;;9.50;99.90;;;;;;5037762;28;20025;-76
2023/09/25 06:16:16;;;;;;;1.92;1.30;;;9.60;99.90;;;;;;5038266;28;20036;-76
2023/09/25 06:18:42;;;;;;;2.47;1.65;;;9.60;99.90;;;;;;5037142;28;20075;-76
2023/09/25 06:21:13;;;;;;;1.50;1.35;;;9.50;99.90;;;;;;5041537;28;20040;-77
2023/09/25 06:23:39;;;;;;;3.67;1.50;;;9.70;99.90;;;;;;5037180;28;20037;-76
2023/09/25 06:26:06;;;;;;;4.53;2.55;;;9.70;99.90;;;;;;5037463;28;20025;-76
2023/09/25 06:28:32;;;;;;;3.92;2.13;;;9.70;99.90;;;;;;5037620;28;20022;-76
2023/09/25 06:30:59;;;;;;;5.15;2.40;;;9.70;99.90;;;;;;5036599;28;20028;-76
2023/09/25 06:33:25;;;;;;;5.50;2.80;;;9.80;99.90;;;;;;5036212;28;20022;-76
2023/09/25 06:35:52;;;;;;;3.65;2.40;;;10.00;99.90;;;;;;5037181;28;20033;-75
2023/09/25 06:38:19;;;;;;;4.90;2.40;;;10.10;99.90;;;;;;5036155;28;20026;-76
2023/09/25 06:40:45;;;;;;;2.95;2.35;;;10.10;99.90;;;;;;5036491;28;20029;-76
2023/09/25 06:43:12;;;;;;;8.82;2.47;;;10.20;99.90;;;;;;5036213;28;20084;-76
2023/09/25 06:45:38;;;;;;;4.40;2.95;;;10.30;99.90;;;;;;5036697;28;20086;-77
2023/09/25 06:48:04;;;;;;;3.03;2.30;;;10.20;99.90;;;;;;5036307;28;20083;-76
2023/09/25 06:50:30;;;;;;;2.72;2.28;;;10.10;99.90;;;;;;5036163;28;20140;-76
2023/09/25 06:52:56;;;;;;;4.35;2.53;;;10.20;99.90;;;;;;5035821;28;20029;-76
2023/09/25 06:55:22;;;;;;;6.07;2.22;;;10.30;99.90;;;;;;5036137;28;20032;-76
2023/09/25 06:57:48;;;;;;;4.80;2.60;;;10.40;99.90;;;;;;5036104;28;20029;-76
2023/09/25 07:00:14;;;;;;;4.22;2.42;;;10.40;99.90;;;;;;5036084;28;20029;-76
2023/09/25 07:02:40;;;;;;;3.88;2.28;;;10.60;99.90;;;;;;5035726;28;20025;-76
2023/09/25 07:05:06;;;;;;;4.97;2.22;;;10.80;99.90;;;;;;5036207;28;20017;-76
2023/09/25 07:07:32;;;;;;;2.65;2.10;;;10.90;99.90;;;;;;5036126;28;20060;-76
2023/09/25 07:09:58;;;;;;;7.45;2.58;;;11.20;99.90;;;;;;5036043;28;20069;-76
2023/09/25 07:12:24;;;;;;;5.63;2.33;;;11.40;99.90;;;;;;5036146;28;20025;-76
2023/09/25 07:14:55;;;;;;;4.70;2.67;;;11.50;99.90;;;;;;5035981;28;20031;-76
2023/09/25 07:17:21;;;;;;;;;;;11.60;99.90;;;;;;5036934;28;20031;-77
2023/09/25 07:19:51;;;;;;;5.03;3.00;;;11.70;99.90;;;;;;5035636;28;19961;-76
2023/09/25 07:22:17;;;;;;;2.47;2.20;;;11.70;99.90;;;;;;5036169;28;20044;-76
2023/09/25 07:24:42;;;;;;;3.03;2.65;;;11.80;99.90;;;;;;5040351;28;20025;-76
2023/09/25 07:27:08;;;;;;;4.72;2.17;;;12.00;99.90;;;;;;5039783;28;20036;-77
2023/09/25 07:29:34;;;;;;;3.92;2.50;;;12.10;99.90;;;;;;5039069;28;20022;-76
2023/09/25 07:32:00;;;;;;;4.65;2.33;;;12.10;99.90;;;;;;5039526;28;20025;-77
2023/09/25 07:34:25;;;;;;;3.38;2.30;;;12.20;99.90;;;;;;5040201;28;20033;-76
2023/09/25 07:36:51;;;;;;;7.82;3.35;;;12.20;99.90;;;;;;5039717;28;20033;-76
2023/09/25 07:39:22;;;;;;;4.03;2.60;;;12.30;99.90;;;;;;5039298;28;20021;-75
2023/09/25 07:41:48;;;;;;;3.05;2.40;;;12.40;99.90;;;;;;5040182;28;20021;-77
2023/09/25 07:44:13;;;;;;;4.82;2.67;;;12.50;99.90;;;;;;5039386;28;20025;-76
2023/09/25 07:46:39;;;;;;;5.25;2.47;;;12.50;99.90;;;;;;5039343;28;20024;-77
2023/09/25 07:49:07;;;;;;;5.47;2.28;;;12.40;99.90;;;;;;5039044;28;20101;-76
2023/09/25 07:51:33;;;;;;;3.88;2.47;;;12.60;99.90;;;;;;5039668;28;20021;-77
2023/09/25 07:53:59;;;;;;;3.70;2.25;;;12.70;99.90;;;;;;5038725;28;20025;-76
2023/09/25 07:56:25;;;;;;;7.03;3.10;;;12.80;99.90;;;;;;5038861;28;20109;-76
2023/09/25 07:58:50;;;;;;;12.43;2.30;;;12.90;99.90;;;;;;5038671;28;20045;-76
2023/09/25 08:01:16;;;;;;;5.05;2.70;;;13.00;99.90;;;;;;5038924;28;20124;-76
2023/09/25 08:03:43;;;;;;;3.20;2.60;;;13.00;99.90;;;;;;5038781;28;20025;-77
2023/09/25 08:06:11;;;;;;;8.93;3.60;;;13.10;99.90;;;;;;5039709;28;20021;-77
2023/09/25 08:08:37;;;;;;;6.82;3.28;;;13.10;99.90;;;;;;5038927;28;20088;-76
2023/09/25 08:11:02;;;;;;;7.00;2.83;;;13.20;99.90;;;;;;5049713;22;20069;-68
2023/09/25 08:13:29;;;;;;;3.88;2.22;;;13.30;99.90;;;;;;5018680;28;20018;-68
2023/09/25 08:15:55;;;;;;;3.55;2.05;;;13.30;99.90;;;;;;5019805;28;20097;-69
2023/09/25 08:18:20;;;;;;;2.95;2.10;;;13.50;99.90;;;;;;5018507;28;20120;-68
2023/09/25 08:20:46;;;;;;;4.78;2.38;;;13.50;99.90;;;;;;5019689;28;20022;-69
2023/09/25 08:23:11;;;;;;;2.58;1.85;;;13.70;99.90;;;;;;5019644;28;20076;-69
2023/09/25 08:25:37;;;;;;;4.47;1.92;;;13.90;99.90;;;;;;5019546;28;20018;-69
2023/09/25 08:28:03;;;;;;;6.45;2.00;;;14.10;99.90;;;;;;5019410;28;20030;-69
2023/09/25 08:30:29;;;;;;;4.93;2.17;;;14.30;99.90;;;;;;5019115;28;20026;-69
2023/09/25 08:32:54;;;;;;;2.67;1.83;;;14.30;99.90;;;;;;5018800;28;20026;-69
2023/09/25 08:35:20;;;;;;;4.90;1.70;;;14.40;99.90;;;;;;5018365;28;20034;-69
2023/09/25 08:37:46;;;;;;;2.65;1.48;;;14.50;99.90;;;;;;5018478;28;20022;-69
2023/09/25 08:40:13;;;;;;;4.22;2.58;;;14.50;99.90;;;;;;5019282;28;20014;-69
2023/09/25 08:42:38;;;;;;;3.03;1.60;;;14.60;99.90;;;;;;5019133;28;20076;-68
2023/09/25 08:45:05;;;;;;;2.60;1.40;;;14.80;99.90;;;;;;5019028;28;20026;-69
2023/09/25 08:47:32;;;;;;;2.58;1.52;;;15.00;99.90;;;;;;5019239;28;20030;-69
2023/09/25 08:49:58;;;;;;;2.22;1.40;;;15.10;99.90;;;;;;5018970;28;20029;-69
2023/09/25 08:52:24;;;;;;;4.45;1.70;;;15.20;99.90;;;;;;5018906;28;20030;-69
2023/09/25 08:54:51;;;;;;;4.43;1.63;;;15.40;99.90;;;;;;5017840;28;20083;-69
2023/09/25 08:57:22;;;;;;;4.85;1.30;;;15.50;99.90;;;;;;5018651;28;20034;-69
2023/09/25 08:59:49;;;;;;;2.75;1.40;;;15.60;99.90;;;;;;5018655;28;20025;-69
2023/09/25 09:02:15;;;;;;;2.08;1.27;;;15.70;99.90;;;;;;5017781;28;20120;-69
2023/09/25 09:04:40;;;;;;;1.45;1.20;;;15.80;99.90;;;;;;5018125;28;20022;-69
2023/09/25 09:07:11;;;;;;;3.45;1.30;;;15.90;99.90;;;;;;5018668;28;20105;-69
2023/09/25 09:09:37;;;;;;;1.50;1.10;;;16.20;99.90;;;;;;5017600;28;20133;-69
2023/09/25 09:12:03;;;;;;;2.05;1.17;;;16.20;99.90;;;;;;5017595;28;20026;-69
2023/09/25 09:14:43;;;;;;;1.25;0.90;;;16.30;99.90;;;;;;5017867;28;20026;-69
2023/09/25 09:17:11;;;;;;;2.42;1.30;;;16.40;99.90;;;;;;5018327;28;20048;-69
2023/09/25 09:19:53;;;;;;;1.30;1.02;;;16.50;99.90;;;;;;5018279;28;20052;-69
2023/09/25 09:22:21;;;;;;;3.45;1.27;;;16.70;99.90;;;;;;5018779;28;20030;-69
2023/09/25 09:24:49;;;;;;;2.78;1.15;;;16.80;99.90;;;;;;5017256;28;20109;-69
2023/09/25 09:27:19;;;;;;;2.83;1.00;;;16.70;99.90;;;;;;5018327;28;20030;-69
2023/09/25 09:29:46;;;;;;;1.70;1.08;;;16.70;99.90;;;;;;5017261;28;20085;-69
2023/09/25 09:32:14;;;;;;;3.08;1.20;;;16.90;99.90;;;;;;5018403;28;20030;-69
2023/09/25 09:34:40;;;;;;;4.30;1.48;;;17.10;99.90;;;;;;5017955;28;20065;-69
2023/09/25 09:37:08;;;;;;;2.53;1.30;;;17.10;99.90;;;;;;5018006;28;20107;-69
2023/09/25 09:39:35;;;;;;;3.55;1.50;;;17.10;99.90;;;;;;5017997;28;20026;-69
2023/09/25 09:42:05;;;;;;;2.42;1.20;;;17.20;99.90;;;;;;5018026;28;20026;-69
2023/09/25 09:44:35;;;;;;;1.40;0.93;;;17.30;99.90;;;;;;5018157;28;20018;-69
2023/09/25 09:47:03;;;;;;;2.72;1.00;;;17.30;99.90;;;;;;5017146;28;20037;-69
2023/09/25 09:49:34;;;;;;;2.83;0.80;;;17.30;99.90;;;;;;5017972;28;20223;-69
2023/09/25 09:52:04;;;;;;;1.33;1.08;;;17.50;99.90;;;;;;5017798;28;20112;-69
2023/09/25 09:54:36;;;;;;;2.35;1.10;;;17.70;99.90;;;;;;5017933;28;20048;-69
2023/09/25 09:57:02;;;;;;;2.65;1.10;;;18.00;99.90;;;;;;5017953;28;20030;-69
2023/09/25 09:59:28;;;;;;;3.95;1.20;;;18.00;99.90;;;;;;5017559;28;20026;-69
2023/09/25 10:01:56;;;;;;;3.72;0.98;;;17.90;99.90;;;;;;5017801;28;20014;-69
2023/09/25 10:04:22;;;;;;;3.28;1.10;;;18.20;99.90;;;;;;5017034;28;20026;-68
2023/09/25 10:06:52;;;;;;;4.35;1.55;;;18.40;99.90;;;;;;5017571;28;20054;-68
2023/09/25 10:09:18;;;;;;;1.90;1.15;;;18.50;99.90;;;;;;5016939;28;20108;-68
2023/09/25 10:11:48;;;;;;;2.80;1.23;;;18.60;99.90;;;;;;5018146;28;20088;-69
2023/09/25 10:14:20;;;;;;;3.13;1.25;;;18.50;99.90;;;;;;5017732;28;20101;-68
2023/09/25 10:17:03;;;;;;;1.77;1.20;;;18.70;99.90;;;;;;5017709;28;20022;-69
2023/09/25 10:19:41;;;;;;;1.73;1.30;;;19.00;99.90;;;;;;5016833;28;20089;-68
2023/09/25 10:22:13;;;;;;;5.25;1.23;;;19.60;99.90;;;;;;5016398;28;20057;-69
2023/09/25 10:24:41;;;;;;;2.80;1.35;;;19.40;99.90;;;;;;5017398;28;20042;-69
2023/09/25 10:27:10;;;;;;;8.05;1.23;;;19.30;99.90;;;;;;5017457;28;20033;-68
2023/09/25 10:29:36;;;;;;;4.97;1.40;;;19.80;99.90;;;;;;5017154;28;20049;-69
2023/09/25 10:32:03;;;;;;;5.13;1.00;;;20.00;99.90;;;;;;5016724;28;20032;-69
2023/09/25 10:34:31;;;;;;;5.75;2.28;;;19.80;99.90;;;;;;5016699;28;20025;-69
2023/09/25 10:37:00;;;;;;;9.32;2.30;;;19.80;99.90;;;;;;5017283;28;20049;-69
2023/09/25 10:39:30;;;;;;;3.30;1.40;;;20.20;99.90;;;;;;5016308;28;20108;-69
2023/09/25 10:42:05;;;;;;;2.30;1.17;;;20.10;99.90;;;;;;5016344;28;20081;-69
2023/09/25 10:44:31;;;;;;;2.28;1.38;;;20.40;99.90;;;;;;5017098;28;20022;-69
2023/09/25 10:47:00;;;;;;;2.88;1.33;;;20.30;99.90;;;;;;5016464;28;20034;-69
2023/09/25 10:49:27;;;;;;;4.38;1.30;;;20.30;99.90;;;;;;5016421;28;20022;-69
2023/09/25 10:51:54;;;;;;;1.48;1.20;;;20.30;99.90;;;;;;5017095;28;20033;-69
2023/09/25 10:54:19;;;;;;;4.93;0.95;;;21.00;99.90;;;;;;5016153;28;20041;-69
2023/09/25 10:56:45;;;;;;;2.50;1.38;;;22.00;99.90;;;;;;5017399;28;20026;-70
2023/09/25 10:59:11;;;;;;;1.38;1.02;;;22.40;99.90;;;;;;5020787;28;20101;-69
2023/09/25 11:01:37;;;;;;;1.80;1.05;;;22.30;99.90;;;;;;5020052;28;20021;-69
2023/09/25 11:04:03;;;;;;;5.65;1.60;;;22.20;99.90;;;;;;5020234;28;20061;-69
2023/09/25 11:06:29;;;;;;;1.85;1.27;;;22.40;99.90;;;;;;5021479;28;20050;-69
2023/09/25 11:09:18;;;;;;;2.92;1.88;;;21.90;99.90;;;;;;5019892;28;20026;-69
2023/09/25 11:11:44;;;;;;;4.55;1.27;;;22.10;99.90;;;;;;5013076;28;20050;-69
2023/09/25 11:14:11;;;;;;;1.45;1.15;;;22.30;99.90;;;;;;5020068;28;20025;-67
2023/09/25 11:16:37;;;;;;;4.03;1.40;;;22.50;99.90;;;;;;5021096;28;20076;-67
2023/09/25 11:19:15;;;;;;;3.05;1.40;;;22.70;99.90;;;;;;5019761;28;20108;-69
2023/09/25 11:21:45;;;;;;;5.05;1.30;;;22.40;99.90;;;;;;5019955;28;20033;-69
2023/09/25 11:24:11;;;;;;;3.35;1.48;;;21.90;99.90;;;;;;5020934;28;20018;-69
2023/09/25 11:26:38;;;;;;;3.28;1.30;;;21.90;99.90;;;;;;5019510;28;20033;-69
2023/09/25 11:29:11;;;;;;;2.47;1.40;;;22.20;99.90;;;;;;5020513;28;20026;-69
2023/09/25 11:31:37;;;;;;;1.70;1.13;;;22.40;99.90;;;;;;5020340;28;20018;-70
2023/09/25 11:34:06;;;;;;;7.90;1.25;;;22.50;99.90;;;;;;5020389;28;20017;-70
2023/09/25 11:36:33;;;;;;;4.65;1.25;;;23.90;99.90;;;;;;5020389;28;20030;-70
2023/09/25 11:38:58;;;;;;;5.90;1.73;;;23.60;99.90;;;;;;5020168;28;20028;-70
2023/09/25 11:41:24;;;;;;;2.35;1.17;;;23.40;99.90;;;;;;5019316;28;20085;-70
2023/09/25 11:43:50;;;;;;;1.88;1.50;;;23.30;99.90;;;;;;5020261;28;20033;-68
2023/09/25 11:46:16;;;;;;;1.30;1.20;;;23.20;99.90;;;;;;5020304;28;20093;-68
2023/09/25 11:48:41;;;;;;;2.17;1.02;;;22.90;99.90;;;;;;5020098;28;20025;-68
2023/09/25 11:51:08;;;;;;;2.65;1.13;;;23.00;99.90;;;;;;5019058;28;20021;-68
2023/09/25 11:53:34;;;;;;;2.13;0.88;;;22.90;99.90;;;;;;5019907;28;20032;-68
2023/09/25 11:56:00;;;;;;;2.83;1.40;;;24.00;99.90;;;;;;5019272;28;20025;-68
2023/09/25 11:58:28;;;;;;;2.72;1.27;;;23.80;99.90;;;;;;5019869;28;20037;-68
2023/09/25 12:00:54;;;;;;;4.85;1.15;;;23.70;99.90;;;;;;5018977;28;20085;-70
2023/09/25 12:03:19;;;;;;;2.15;1.10;;;23.00;99.90;;;;;;5020144;28;20046;-70
2023/09/25 12:05:45;;;;;;;3.17;1.25;;;23.50;99.90;;;;;;5019765;28;20022;-70
2023/09/25 12:08:12;;;;;;;2.65;1.30;;;23.70;99.90;;;;;;5018805;28;20087;-70
2023/09/25 12:10:38;;;;;;;1.40;1.20;;;23.90;99.90;;;;;;5018457;28;20033;-70
2023/09/25 12:13:07;;;;;;;1.75;1.20;;;23.60;99.90;;;;;;5019775;28;20026;-70
2023/09/25 12:15:32;;;;;;;2.03;1.17;;;23.20;99.90;;;;;;5019793;28;20030;-70
2023/09/25 12:17:58;;;;;;;3.00;1.40;;;23.70;99.90;;;;;;5019061;28;20030;-70
2023/09/25 12:20:24;;;;;;;1.58;1.10;;;23.70;99.90;;;;;;5019553;28;20022;-70
2023/09/25 12:22:52;;;;;;;1.92;1.25;;;23.50;99.90;;;;;;5019766;28;20030;-70
2023/09/25 12:25:19;;;;;;;1.90;1.23;;;23.50;99.90;;;;;;5019464;28;20045;-70
2023/09/25 12:27:45;;;;;;;1.77;1.05;;;23.70;99.90;;;;;;5019313;28;20100;-70
2023/09/25 12:30:15;;;;;;;1.42;1.17;;;23.80;99.90;;;;;;5019188;28;20026;-70
2023/09/25 12:32:43;;;;;;;1.65;1.15;;;23.60;99.90;;;;;;5019316;28;20037;-70
2023/09/25 12:35:10;;;;;;;2.22;1.13;;;23.40;99.90;;;;;;5019173;28;20048;-70
2023/09/25 12:37:35;;;;;;;3.10;1.65;;;23.90;99.90;;;;;;5018998;28;20029;-70
2023/09/25 12:40:02;;;;;;;2.63;1.52;;;24.00;99.90;;;;;;5019109;28;20121;-70
2023/09/25 12:42:28;;;;;;;3.75;1.60;;;24.20;99.90;;;;;;5018054;28;20097;-70
2023/09/25 12:44:54;;;;;;;1.63;1.10;;;24.30;99.90;;;;;;5019364;28;20037;-70
2023/09/25 12:47:21;;;;;;;1.80;1.48;;;24.30;99.90;;;;;;5018059;28;20060;-70